createdAt,value
2018-04-29T00:01:59.507Z,95701.98
2018-04-29T00:04:27.082Z,95700.67
2018-04-29T00:06:54.644Z,95705.46
2018-04-29T00:09:22.188Z,95699.05
2018-04-29T00:11:49.731Z,95700.45
2018-04-29T00:14:17.278Z,95708.77
2018-04-29T00:16:44.864Z,95712.97
2018-04-29T00:19:12.412Z,95705.02
2018-04-29T00:21:39.947Z,95708.00
2018-04-29T00:24:07.496Z,95706.09
2018-04-29T00:26:35.077Z,95711.00
2018-04-29T00:29:02.623Z,95712.84
2018-04-29T00:31:30.159Z,95706.86
2018-04-29T00:33:57.698Z,95701.44
2018-04-29T00:36:25.263Z,95703.54
2018-04-29T00:38:52.803Z,95708.78
2018-04-29T00:41:20.330Z,95703.62
2018-04-29T00:43:47.858Z,95705.91
2018-04-29T00:46:15.416Z,95701.03
2018-04-29T00:48:42.980Z,95705.88
2018-04-29T00:51:10.519Z,95696.60
2018-04-29T00:53:38.059Z,95706.73
2018-04-29T00:56:05.619Z,95704.75
2018-04-29T00:58:33.228Z,95705.67
2018-04-29T01:01:00.820Z,95701.49
2018-04-29T01:03:28.355Z,95699.80
2018-04-29T01:05:55.886Z,95703.78
2018-04-29T01:08:23.443Z,95696.03
2018-04-29T01:10:50.983Z,95694.64
2018-04-29T01:13:18.527Z,95695.73
2018-04-29T01:15:46.068Z,95689.59
2018-04-29T01:18:13.608Z,95700.41
2018-04-29T01:20:41.139Z,95697.86
2018-04-29T01:23:08.736Z,95685.42
2018-04-29T01:25:36.248Z,95694.05
2018-04-29T01:28:03.803Z,95698.27
2018-04-29T01:30:31.390Z,95695.73
2018-04-29T01:32:58.931Z,95690.00
2018-04-29T01:35:26.543Z,95697.06
2018-04-29T01:37:54.112Z,95701.52
2018-04-29T01:40:21.647Z,95690.70
2018-04-29T01:42:58.685Z,95694.78
2018-04-29T01:45:26.807Z,95685.83
2018-04-29T01:47:54.371Z,95689.34
2018-04-29T01:50:21.926Z,95685.16
2018-04-29T01:52:49.461Z,95692.86
2018-04-29T01:55:18.006Z,95685.53
2018-04-29T01:57:45.606Z,95673.23
2018-04-29T02:00:13.241Z,95681.05
2018-04-29T02:02:40.798Z,95666.36
2018-04-29T02:05:08.343Z,95665.73
2018-04-29T02:07:35.887Z,95668.52
2018-04-29T02:10:03.450Z,95663.84
2018-04-29T02:12:30.983Z,95666.66
2018-04-29T02:14:58.571Z,95666.58
2018-04-29T02:17:26.171Z,95658.16
2018-04-29T02:19:53.702Z,95636.32
2018-04-29T02:22:21.253Z,95651.39
2018-04-29T02:24:48.787Z,95652.84
2018-04-29T02:27:16.348Z,95653.34
2018-04-29T02:29:43.881Z,95649.56
2018-04-29T02:32:11.459Z,95646.42
2018-04-29T02:34:39.072Z,95649.25
2018-04-29T02:37:06.651Z,95640.80
2018-04-29T02:39:34.184Z,95646.59
2018-04-29T02:42:01.729Z,95641.63
2018-04-29T02:44:29.271Z,95630.68
2018-04-29T02:46:56.810Z,95642.88
2018-04-29T02:49:24.386Z,95644.47
2018-04-29T02:51:51.928Z,95646.33
2018-04-29T02:54:19.487Z,95646.88
2018-04-29T02:56:47.043Z,95646.16
2018-04-29T02:59:14.613Z,95645.00
2018-04-29T03:01:42.165Z,95634.93
2018-04-29T03:04:09.716Z,95639.70
2018-04-29T03:06:37.307Z,95635.38
2018-04-29T03:09:05.495Z,95643.53
2018-04-29T03:11:33.079Z,95634.84
2018-04-29T03:14:00.620Z,95635.94
2018-04-29T03:16:28.156Z,95632.30
2018-04-29T03:18:55.704Z,95632.03
2018-04-29T03:21:23.239Z,95634.92
2018-04-29T03:23:50.818Z,95631.33
2018-04-29T03:26:18.390Z,95634.74
2018-04-29T03:28:45.986Z,95630.22
2018-04-29T03:31:14.496Z,95642.14
2018-04-29T03:33:42.044Z,95648.22
2018-04-29T03:36:09.589Z,95649.41
2018-04-29T03:38:37.183Z,95651.50
2018-04-29T03:41:04.774Z,95645.52
2018-04-29T03:43:32.369Z,95649.84
2018-04-29T03:45:59.933Z,95652.69
2018-04-29T03:48:27.479Z,95647.27
2018-04-29T03:50:55.088Z,95655.70
2018-04-29T03:53:22.635Z,95656.16
2018-04-29T03:55:50.189Z,95654.95
2018-04-29T03:58:29.416Z,95662.16
2018-04-29T04:01:08.617Z,95654.13
2018-04-29T04:06:40.296Z,95662.05
2018-04-29T04:09:07.827Z,95657.88
2018-04-29T04:11:35.363Z,95659.84
2018-04-29T04:14:02.938Z,95656.72
2018-04-29T04:16:30.471Z,95661.45
2018-04-29T04:18:58.045Z,95664.00
2018-04-29T04:21:25.629Z,95666.23
2018-04-29T04:23:53.166Z,95660.80
2018-04-29T04:26:20.708Z,95666.55
2018-04-29T04:28:48.264Z,95668.36
2018-04-29T04:31:15.847Z,95662.08
2018-04-29T04:33:43.408Z,95670.09
2018-04-29T04:36:10.935Z,95670.09
2018-04-29T04:38:38.475Z,95668.55
2018-04-29T04:41:06.047Z,95670.55
2018-04-29T04:43:33.628Z,95671.09
2018-04-29T04:46:01.210Z,95671.72
2018-04-29T04:48:28.795Z,95677.20
2018-04-29T04:50:56.327Z,95672.93
2018-04-29T04:53:23.868Z,95675.42
2018-04-29T04:55:51.400Z,95665.66
2018-04-29T04:58:18.939Z,95665.61
2018-04-29T05:00:46.515Z,95667.84
2018-04-29T05:03:14.044Z,95670.30
2018-04-29T05:05:41.660Z,95671.27
2018-04-29T05:08:09.195Z,95667.17
2018-04-29T05:10:36.775Z,95663.97
2018-04-29T05:13:04.358Z,95676.55
2018-04-29T05:15:31.924Z,95667.05
2018-04-29T05:17:59.515Z,95657.97
2018-04-29T05:20:26.999Z,95669.59
2018-04-29T05:22:54.578Z,95659.39
2018-04-29T05:25:22.197Z,95652.70
2018-04-29T05:27:49.762Z,95663.28
2018-04-29T05:30:17.348Z,95664.76
2018-04-29T05:32:44.900Z,95650.94
2018-04-29T05:35:12.435Z,95656.63
2018-04-29T05:37:39.976Z,95661.93
2018-04-29T05:40:07.554Z,95649.57
2018-04-29T05:42:35.179Z,95660.52
2018-04-29T05:45:02.707Z,95648.27
2018-04-29T05:47:30.250Z,95665.08
2018-04-29T05:49:57.818Z,95649.20
2018-04-29T05:52:25.391Z,95648.42
2018-04-29T05:54:52.923Z,95663.05
2018-04-29T05:57:20.456Z,95649.80
2018-04-29T05:59:48.013Z,95649.48
2018-04-29T06:02:15.547Z,95651.86
2018-04-29T06:04:43.112Z,95649.39
2018-04-29T06:07:10.680Z,95648.02
2018-04-29T06:09:38.263Z,95644.62
2018-04-29T06:12:05.799Z,95652.86
2018-04-29T06:14:33.323Z,95648.41
2018-04-29T06:17:02.653Z,95643.88
2018-04-29T06:19:30.304Z,95645.59
2018-04-29T06:21:57.888Z,95653.95
2018-04-29T06:24:25.505Z,95653.81
2018-04-29T06:26:52.993Z,95651.50
2018-04-29T06:29:20.576Z,95651.36
2018-04-29T06:31:48.124Z,95661.81
2018-04-29T06:34:15.654Z,95657.21
2018-04-29T06:36:43.187Z,95647.80
2018-04-29T06:39:10.759Z,95651.88
2018-04-29T06:41:38.320Z,95652.35
2018-04-29T06:44:05.855Z,95647.28
2018-04-29T06:46:33.628Z,95650.77
2018-04-29T06:49:01.199Z,95657.41
2018-04-29T06:51:28.755Z,95670.55
2018-04-29T06:53:56.311Z,95654.52
2018-04-29T06:56:23.852Z,95657.73
2018-04-29T06:58:51.397Z,95644.68
2018-04-29T07:01:18.944Z,95655.78
2018-04-29T07:03:46.488Z,95635.20
2018-04-29T07:06:14.024Z,95651.83
2018-04-29T07:08:41.567Z,95652.67
2018-04-29T07:11:09.119Z,95643.59
2018-04-29T07:13:36.669Z,95645.73
2018-04-29T07:16:04.227Z,95646.16
2018-04-29T07:18:31.766Z,95648.08
2018-04-29T07:20:59.306Z,95638.77
2018-04-29T07:23:26.849Z,95647.02
2018-04-29T07:25:54.383Z,95640.13
2018-04-29T07:28:21.991Z,95653.71
2018-04-29T07:30:49.528Z,95650.11
2018-04-29T07:33:17.075Z,95649.68
2018-04-29T07:35:44.647Z,95647.34
2018-04-29T07:38:12.207Z,95647.20
2018-04-29T07:40:39.797Z,95640.81
2018-04-29T07:43:07.407Z,95638.17
2018-04-29T07:45:34.964Z,95646.02
2018-04-29T07:48:02.523Z,95641.52
2018-04-29T07:50:30.075Z,95628.13
2018-04-29T07:52:57.653Z,95643.85
2018-04-29T07:55:25.225Z,95640.03
2018-04-29T07:57:52.806Z,95643.59
2018-04-29T08:00:20.384Z,95638.36
2018-04-29T08:02:47.931Z,95642.72
2018-04-29T08:05:15.542Z,95637.57
2018-04-29T08:07:43.096Z,95643.97
2018-04-29T08:10:10.649Z,95635.45
2018-04-29T08:12:38.226Z,95634.20
2018-04-29T08:15:05.792Z,95631.53
2018-04-29T08:17:33.342Z,95623.75
2018-04-29T08:20:00.882Z,95630.47
2018-04-29T08:22:28.483Z,95628.30
2018-04-29T08:24:56.022Z,95633.66
2018-04-29T08:27:23.603Z,95641.36
2018-04-29T08:29:51.235Z,95647.14
2018-04-29T08:32:18.788Z,95619.88
2018-04-29T08:34:46.347Z,95621.11
2018-04-29T08:37:13.927Z,95620.58
2018-04-29T08:39:41.472Z,95609.94
2018-04-29T08:42:09.010Z,95607.42
2018-04-29T08:44:36.545Z,95622.89
2018-04-29T08:47:04.145Z,95617.42
2018-04-29T08:49:31.788Z,95622.48
2018-04-29T08:51:59.321Z,95603.14
2018-04-29T08:54:26.858Z,95625.39
2018-04-29T08:56:54.391Z,95613.21
2018-04-29T08:59:21.952Z,95595.13
2018-04-29T09:01:49.488Z,95605.03
2018-04-29T09:04:17.027Z,95607.44
2018-04-29T09:06:44.578Z,95600.50
2018-04-29T09:09:12.135Z,95595.74
2018-04-29T09:11:39.776Z,95598.63
2018-04-29T09:14:07.357Z,95600.14
2018-04-29T09:16:34.907Z,95602.65
2018-04-29T09:19:02.491Z,95594.30
2018-04-29T09:21:30.036Z,95570.87
2018-04-29T09:23:57.575Z,95589.72
2018-04-29T09:26:25.106Z,95601.22
2018-04-29T09:28:52.675Z,95590.35
2018-04-29T09:31:20.245Z,95595.96
2018-04-29T09:33:47.803Z,95576.40
2018-04-29T09:36:15.383Z,95596.98
2018-04-29T09:38:42.927Z,95582.50
2018-04-29T09:41:10.492Z,95584.43
2018-04-29T09:43:38.091Z,95576.83
2018-04-29T09:46:05.638Z,95583.33
2018-04-29T09:48:33.189Z,95576.41
2018-04-29T09:51:00.726Z,95602.41
2018-04-29T09:53:28.327Z,95577.33
2018-04-29T09:55:55.911Z,95574.11
2018-04-29T09:58:23.496Z,95566.63
2018-04-29T10:00:51.085Z,95565.30
2018-04-29T10:03:19.570Z,95566.16
2018-04-29T10:05:47.139Z,95564.53
2018-04-29T10:08:14.714Z,95556.74
2018-04-29T10:10:42.277Z,95567.28
2018-04-29T10:13:09.871Z,95565.64
2018-04-29T10:15:37.420Z,95557.48
2018-04-29T10:18:04.947Z,95549.86
2018-04-29T10:20:32.501Z,95570.19
2018-04-29T10:23:00.031Z,95554.69
2018-04-29T10:25:27.575Z,95566.46
2018-04-29T10:27:55.784Z,95544.95
2018-04-29T10:30:24.154Z,95543.84
2018-04-29T10:32:52.782Z,95548.09
2018-04-29T10:35:20.706Z,95550.55
2018-04-29T10:37:49.367Z,95543.56
2018-04-29T10:40:17.143Z,95533.67
2018-04-29T10:42:44.917Z,95542.77
2018-04-29T10:45:13.255Z,95541.74
2018-04-29T10:47:40.823Z,95535.20
2018-04-29T10:50:08.414Z,95548.30
2018-04-29T10:52:36.029Z,95548.56
2018-04-29T10:55:03.539Z,95545.91
2018-04-29T10:57:31.735Z,95519.12
2018-04-29T10:59:59.314Z,95530.28
2018-04-29T11:02:26.846Z,95541.73
2018-04-29T11:04:54.379Z,95545.36
2018-04-29T11:07:21.927Z,95526.61
2018-04-29T11:09:49.500Z,95529.65
2018-04-29T11:12:17.044Z,95524.58
2018-04-29T11:14:45.545Z,95517.23
2018-04-29T11:17:13.086Z,95518.12
2018-04-29T11:19:40.619Z,95528.17
2018-04-29T11:22:08.261Z,95513.98
2018-04-29T11:24:35.760Z,95510.67
2018-04-29T11:27:03.327Z,95523.47
2018-04-29T11:29:38.073Z,95522.72
2018-04-29T11:32:05.722Z,95507.73
2018-04-29T11:34:33.247Z,95498.28
2018-04-29T11:37:00.796Z,95528.03
2018-04-29T11:39:28.368Z,95508.55
2018-04-29T11:41:55.907Z,95506.45
2018-04-29T11:44:23.478Z,95492.05
2018-04-29T11:46:51.022Z,95498.91
2018-04-29T11:49:18.619Z,95490.14
2018-04-29T11:51:46.157Z,95486.15
2018-04-29T11:54:13.723Z,95476.05
2018-04-29T11:56:41.280Z,95484.72
2018-04-29T11:59:08.835Z,95491.66
2018-04-29T12:01:36.370Z,95463.04
2018-04-29T12:04:03.943Z,95453.57
2018-04-29T12:06:31.505Z,95459.03
2018-04-29T12:08:59.083Z,95451.55
2018-04-29T12:11:26.617Z,95466.57
2018-04-29T12:13:54.143Z,95469.28
2018-04-29T12:16:21.689Z,95462.14
2018-04-29T12:18:49.302Z,95470.60
2018-04-29T12:21:16.948Z,95452.44
2018-04-29T12:23:44.495Z,95448.88
2018-04-29T12:26:12.027Z,95456.73
2018-04-29T12:28:39.555Z,95434.82
2018-04-29T12:31:07.094Z,95436.52
2018-04-29T12:33:34.721Z,95441.47
2018-04-29T12:36:02.628Z,95428.74
2018-04-29T12:38:30.153Z,95430.33
2018-04-29T12:40:57.694Z,95437.66
2018-04-29T12:43:25.296Z,95433.10
2018-04-29T12:45:52.844Z,95424.14
2018-04-29T12:48:20.405Z,95414.58
2018-04-29T12:50:47.936Z,95429.06
2018-04-29T12:53:15.534Z,95402.69
2018-04-29T12:55:43.097Z,95408.84
2018-04-29T12:58:10.659Z,95407.08
2018-04-29T13:00:38.247Z,95410.85
2018-04-29T13:03:05.820Z,95393.12
2018-04-29T13:05:33.556Z,95393.15
2018-04-29T13:08:01.112Z,95389.70
2018-04-29T13:10:28.647Z,95385.42
2018-04-29T13:12:56.187Z,95376.88
2018-04-29T13:15:23.855Z,95385.66
2018-04-29T13:17:51.419Z,95380.86
2018-04-29T13:20:18.955Z,95378.83
2018-04-29T13:22:46.482Z,95391.30
2018-04-29T13:25:14.016Z,95378.20
2018-04-29T13:27:41.706Z,95377.32
2018-04-29T13:30:09.275Z,95374.89
2018-04-29T13:32:36.812Z,95365.23
2018-04-29T13:35:04.394Z,95374.94
2018-04-29T13:37:31.919Z,95372.71
2018-04-29T13:39:59.459Z,95377.44
2018-04-29T13:42:27.013Z,95372.75
2018-04-29T13:44:54.574Z,95371.12
2018-04-29T13:47:22.116Z,95396.18
2018-04-29T13:49:49.711Z,95384.63
2018-04-29T13:52:17.318Z,95359.02
2018-04-29T13:54:44.810Z,95371.39
2018-04-29T13:57:12.339Z,95366.58
2018-04-29T13:59:39.864Z,95373.69
2018-04-29T14:02:07.403Z,95366.41
2018-04-29T14:04:34.941Z,95354.92
2018-04-29T14:07:02.532Z,95376.19
2018-04-29T14:09:30.080Z,95366.26
2018-04-29T14:11:57.619Z,95365.59
2018-04-29T14:14:25.235Z,95364.53
2018-04-29T14:16:52.769Z,95353.94
2018-04-29T14:19:20.303Z,95373.35
2018-04-29T14:21:47.831Z,95350.73
2018-04-29T14:24:15.536Z,95350.80
2018-04-29T14:26:43.244Z,95357.75
2018-04-29T14:29:10.775Z,95363.03
2018-04-29T14:31:38.318Z,95361.62
2018-04-29T14:34:05.851Z,95360.98
2018-04-29T14:36:33.518Z,95366.16
2018-04-29T14:39:01.052Z,95362.88
2018-04-29T14:41:28.598Z,95345.22
2018-04-29T14:43:56.129Z,95358.61
2018-04-29T14:46:23.691Z,95364.58
2018-04-29T14:48:51.284Z,95363.25
2018-04-29T14:51:18.871Z,95364.35
2018-04-29T14:53:46.411Z,95344.93
2018-04-29T14:56:13.935Z,95350.42
2018-04-29T14:58:41.503Z,95345.00
2018-04-29T15:01:09.037Z,95370.77
2018-04-29T15:03:36.575Z,95352.75
2018-04-29T15:06:04.701Z,95344.91
2018-04-29T15:08:32.266Z,95347.21
2018-04-29T15:11:00.594Z,95353.89
2018-04-29T15:13:28.132Z,95362.44
2018-04-29T15:15:55.699Z,95367.52
2018-04-29T15:18:34.981Z,95356.05
2018-04-29T15:21:03.319Z,95352.78
2018-04-29T15:23:30.855Z,95336.50
2018-04-29T15:25:58.393Z,95350.59
2018-04-29T15:28:25.925Z,95346.63
2018-04-29T15:30:53.455Z,95342.52
2018-04-29T15:33:20.983Z,95333.89
2018-04-29T15:35:48.511Z,95319.40
2018-04-29T15:38:16.050Z,95336.57
2018-04-29T15:40:43.636Z,95315.01
2018-04-29T15:43:11.179Z,95325.99
2018-04-29T15:45:38.752Z,95337.39
2018-04-29T15:48:06.335Z,95338.15
2018-04-29T15:50:33.861Z,95327.72
2018-04-29T15:53:01.399Z,95325.89
2018-04-29T15:55:28.932Z,95329.92
2018-04-29T15:57:56.471Z,95312.01
2018-04-29T16:00:24.040Z,95335.03
2018-04-29T16:02:51.575Z,95336.02
2018-04-29T16:05:19.195Z,95326.41
2018-04-29T16:07:46.754Z,95325.73
2018-04-29T16:10:14.343Z,95325.29
2018-04-29T16:12:41.886Z,95325.77
2018-04-29T16:15:09.423Z,95332.22
2018-04-29T16:17:36.979Z,95331.45
2018-04-29T16:20:04.555Z,95323.47
2018-04-29T16:22:32.078Z,95325.88
2018-04-29T16:24:59.884Z,95331.72
2018-04-29T16:27:27.442Z,95314.41
2018-04-29T16:29:55.081Z,95329.92
2018-04-29T16:32:22.647Z,95322.11
2018-04-29T16:34:50.182Z,95338.27
2018-04-29T16:37:17.756Z,95337.02
2018-04-29T16:39:45.278Z,95342.77
2018-04-29T16:42:12.843Z,95334.83
2018-04-29T16:44:40.420Z,95336.74
2018-04-29T16:47:07.986Z,95337.78
2018-04-29T16:49:35.608Z,95348.01
2018-04-29T16:52:03.178Z,95349.17
2018-04-29T16:54:30.707Z,95339.52
2018-04-29T16:56:58.249Z,95347.44
2018-04-29T16:59:25.850Z,95347.72
2018-04-29T17:01:53.356Z,95344.03
2018-04-29T17:04:20.928Z,95354.08
2018-04-29T17:06:48.452Z,95342.50
2018-04-29T17:09:15.983Z,95357.80
2018-04-29T17:11:43.509Z,95357.66
2018-04-29T17:14:11.091Z,95355.50
2018-04-29T17:16:38.729Z,95361.06
2018-04-29T17:19:06.220Z,95355.27
2018-04-29T17:21:33.761Z,95350.78
2018-04-29T17:24:01.305Z,95359.82
2018-04-29T17:26:28.882Z,95390.44
2018-04-29T17:28:56.414Z,95375.56
2018-04-29T17:31:23.949Z,95373.40
2018-04-29T17:33:51.487Z,95379.11
2018-04-29T17:36:19.036Z,95384.20
2018-04-29T17:38:46.631Z,95388.13
2018-04-29T17:41:14.344Z,95390.87
2018-04-29T17:43:41.968Z,95389.13
2018-04-29T17:46:09.729Z,95387.73
2018-04-29T17:48:37.283Z,95399.52
2018-04-29T17:51:04.842Z,95382.87
2018-04-29T17:53:32.384Z,95393.61
2018-04-29T17:55:59.955Z,95396.58
2018-04-29T17:58:27.555Z,95403.24
2018-04-29T18:00:55.148Z,95396.00
2018-04-29T18:03:22.751Z,95404.42
2018-04-29T18:05:50.332Z,95402.87
2018-04-29T18:08:17.873Z,95403.27
2018-04-29T18:10:45.422Z,95415.42
2018-04-29T18:13:12.971Z,95416.98
2018-04-29T18:15:40.493Z,95418.94
2018-04-29T18:18:08.075Z,95423.45
2018-04-29T18:20:35.646Z,95423.44
2018-04-29T18:23:03.190Z,95431.66
2018-04-29T18:25:30.724Z,95433.81
2018-04-29T18:27:58.251Z,95431.46
2018-04-29T18:30:25.856Z,95406.58
2018-04-29T18:32:53.407Z,95438.33
2018-04-29T18:35:20.946Z,95442.03
2018-04-29T18:37:48.496Z,95433.80
2018-04-29T18:40:16.024Z,95441.59
2018-04-29T18:42:43.559Z,95432.38
2018-04-29T18:45:11.087Z,95435.70
2018-04-29T18:47:38.615Z,95443.33
2018-04-29T18:50:06.387Z,95448.98
2018-04-29T18:52:35.120Z,95445.27
2018-04-29T18:55:02.660Z,95439.97
2018-04-29T18:57:30.191Z,95456.20
2018-04-29T18:59:57.801Z,95446.61
2018-04-29T19:02:25.283Z,95456.78
2018-04-29T19:04:55.597Z,95453.81
2018-04-29T19:07:26.157Z,95456.73
2018-04-29T19:09:58.719Z,95454.97
2018-04-29T19:12:26.258Z,95459.47
2018-04-29T19:14:55.285Z,95451.84
2018-04-29T19:17:23.654Z,95460.81
2018-04-29T19:19:51.234Z,95462.55
2018-04-29T19:22:18.911Z,95462.52
2018-04-29T19:24:46.468Z,95454.70
2018-04-29T19:27:17.066Z,95439.20
2018-04-29T19:29:44.595Z,95445.27
2018-04-29T19:32:15.749Z,95428.91
2018-04-29T19:34:43.335Z,95456.34
2018-04-29T19:37:11.818Z,95447.73
2018-04-29T19:39:39.346Z,95452.16
2018-04-29T19:42:06.964Z,95453.17
2018-04-29T19:44:34.514Z,95449.97
2018-04-29T19:47:02.051Z,95453.48
2018-04-29T19:49:29.599Z,95466.33
2018-04-29T19:51:57.179Z,95452.65
2018-04-29T19:54:24.755Z,95454.91
2018-04-29T19:56:52.280Z,95458.51
2018-04-29T19:59:19.819Z,95451.41
2018-04-29T20:01:47.367Z,95463.03
2018-04-29T20:04:14.900Z,95460.44
2018-04-29T20:06:42.547Z,95466.09
2018-04-29T20:09:10.099Z,95464.45
2018-04-29T20:11:37.697Z,95468.73
2018-04-29T20:14:05.201Z,95475.38
2018-04-29T20:16:32.766Z,95463.45
2018-04-29T20:19:00.307Z,95477.44
2018-04-29T20:21:27.890Z,95473.11
2018-04-29T20:23:55.903Z,95470.27
2018-04-29T20:26:23.338Z,95472.78
2018-04-29T20:28:50.868Z,95466.52
2018-04-29T20:31:18.422Z,95475.19
2018-04-29T20:33:45.955Z,95473.45
2018-04-29T20:36:13.531Z,95473.75
2018-04-29T20:38:41.072Z,95466.23
2018-04-29T20:41:08.727Z,95474.41
2018-04-29T20:43:36.252Z,95474.77
2018-04-29T20:46:03.835Z,95480.89
2018-04-29T20:48:31.374Z,95471.06
2018-04-29T20:50:58.922Z,95483.59
2018-04-29T20:53:26.480Z,95492.53
2018-04-29T20:55:54.078Z,95483.54
2018-04-29T20:58:21.618Z,95479.52
2018-04-29T21:00:49.179Z,95484.97
2018-04-29T21:03:16.790Z,95496.52
2018-04-29T21:05:44.361Z,95489.08
2018-04-29T21:08:11.944Z,95491.78
2018-04-29T21:10:39.511Z,95496.03
2018-04-29T21:13:07.036Z,95496.05
2018-04-29T21:15:34.618Z,95505.42
2018-04-29T21:18:02.147Z,95491.13
2018-04-29T21:20:29.681Z,95507.33
2018-04-29T21:22:57.251Z,95507.28
2018-04-29T21:25:24.779Z,95522.02
2018-04-29T21:27:52.310Z,95498.31
2018-04-29T21:30:19.869Z,95502.42
2018-04-29T21:32:47.925Z,95499.12
2018-04-29T21:35:15.446Z,95503.09
2018-04-29T21:37:42.971Z,95509.20
2018-04-29T21:40:10.504Z,95508.34
2018-04-29T21:42:38.032Z,95510.51
2018-04-29T21:45:05.597Z,95519.01
2018-04-29T21:47:33.123Z,95514.68
2018-04-29T21:50:00.651Z,95510.77
2018-04-29T21:52:28.195Z,95509.64
2018-04-29T21:54:55.720Z,95507.09
2018-04-29T21:57:23.241Z,95509.91
2018-04-29T21:59:50.779Z,95512.16
2018-04-29T22:02:18.305Z,95506.30
2018-04-29T22:04:45.839Z,95499.95
2018-04-29T22:07:13.363Z,95499.91
2018-04-29T22:09:40.887Z,95502.02
2018-04-29T22:12:08.462Z,95506.00
2018-04-29T22:14:35.990Z,95499.81
2018-04-29T22:17:03.530Z,95497.05
2018-04-29T22:19:31.066Z,95507.70
2018-04-29T22:21:58.605Z,95508.41
2018-04-29T22:24:26.142Z,95502.36
2018-04-29T22:26:53.672Z,95493.64
2018-04-29T22:29:21.201Z,95499.30
2018-04-29T22:31:48.736Z,95504.07
2018-04-29T22:34:16.263Z,95500.21
2018-04-29T22:36:43.804Z,95495.40
2018-04-29T22:39:11.335Z,95500.06
2018-04-29T22:41:38.867Z,95486.16
2018-04-29T22:44:06.393Z,95487.37
2018-04-29T22:46:33.933Z,95485.07
2018-04-29T22:49:01.483Z,95490.36
2018-04-29T22:51:29.048Z,95469.39
2018-04-29T22:53:56.584Z,95483.33
2018-04-29T22:56:24.113Z,95474.28
2018-04-29T22:58:51.648Z,95490.84
2018-04-29T23:01:19.222Z,95484.23
2018-04-29T23:03:46.748Z,95486.84
2018-04-29T23:06:14.319Z,95481.07
2018-04-29T23:08:41.848Z,95479.77
2018-04-29T23:11:09.415Z,95481.14
2018-04-29T23:13:36.939Z,95481.71
2018-04-29T23:16:04.502Z,95482.88
2018-04-29T23:18:32.053Z,95476.45
2018-04-29T23:20:59.576Z,95480.06
2018-04-29T23:23:27.114Z,95476.20
2018-04-29T23:25:54.639Z,95477.61
2018-04-29T23:28:22.171Z,95475.29
2018-04-29T23:30:49.747Z,95478.78
2018-04-29T23:33:17.285Z,95477.68
2018-04-29T23:35:44.860Z,95470.19
2018-04-29T23:38:12.437Z,95473.67
2018-04-29T23:40:43.424Z,95460.45
2018-04-29T23:43:11.032Z,95461.04
2018-04-29T23:45:38.564Z,95467.92
2018-04-29T23:48:06.106Z,95450.19
2018-04-29T23:50:33.627Z,95453.55
2018-04-29T23:53:01.159Z,95454.00
2018-04-29T23:55:28.692Z,95452.75
2018-04-29T23:57:56.236Z,95448.27
